Time;durP1;ratioP1;P1;durP2;ratioP2;P2;SDS_P1;SDS_P2;PMS_P1;PMS_P2;Temp;Humidity;BMP_temperature;BMP_pressure;BME280_temperature;BME280_humidity;BME280_pressure;Samples;Min_cycle;Max_cycle;Signal;HPM_P1;HPM_P2
2021/12/22 00:02:30;;;;;;;9.97;8.97;;;0.60;38.80;;;;;;10305148;28;20231;-74
2021/12/22 00:07:33;;;;;;;10.47;8.60;;;0.60;38.80;;;;;;10303543;28;20231;-75
2021/12/22 00:12:37;;;;;;;10.67;8.83;;;0.50;38.80;;;;;;10309134;28;20641;-75
2021/12/22 00:17:42;;;;;;;11.90;9.30;;;0.50;38.80;;;;;;10306006;28;20329;-74
2021/12/22 00:22:45;;;;;;;12.43;8.67;;;0.50;38.80;;;;;;10310241;28;20313;-74
2021/12/22 00:27:48;;;;;;;10.13;9.07;;;0.50;38.80;;;;;;10306793;28;20233;-75
2021/12/22 00:32:56;;;;;;;11.13;9.43;;;0.40;38.80;;;;;;10307498;28;20235;-74
2021/12/22 00:37:59;;;;;;;10.07;8.10;;;0.40;38.50;;;;;;10299792;28;20244;-74
2021/12/22 00:43:02;;;;;;;9.57;8.37;;;0.30;38.50;;;;;;10305885;28;20242;-75
2021/12/22 00:48:09;;;;;;;11.03;9.20;;;0.30;38.80;;;;;;10304784;28;20238;-74
2021/12/22 00:53:12;;;;;;;11.20;9.13;;;0.20;38.60;;;;;;10315712;28;20336;-75
2021/12/22 00:58:16;;;;;;;12.13;9.87;;;0.20;38.80;;;;;;10316092;28;20243;-75
2021/12/22 01:03:22;;;;;;;11.17;8.77;;;0.20;38.50;;;;;;10315244;28;20274;-74
2021/12/22 01:08:25;;;;;;;10.67;8.83;;;0.10;38.30;;;;;;10316980;28;20231;-74
2021/12/22 01:13:29;;;;;;;12.33;9.10;;;0.10;38.50;;;;;;10316996;28;20242;-74
2021/12/22 01:18:36;;;;;;;11.23;8.57;;;0.00;38.30;;;;;;10312565;28;20397;-74
2021/12/22 01:23:51;;;;;;;10.13;8.30;;;0.00;38.30;;;;;;10317844;28;20266;-74
2021/12/22 01:28:54;;;;;;;9.83;8.43;;;-0.10;38.60;;;;;;10311618;28;20228;-74
2021/12/22 01:33:59;;;;;;;11.87;8.67;;;-0.10;38.60;;;;;;10315224;28;20231;-74
2021/12/22 01:39:03;;;;;;;10.07;7.80;;;-0.20;39.20;;;;;;10314659;28;20724;-74
2021/12/22 01:44:09;;;;;;;9.07;7.93;;;-0.20;38.50;;;;;;10315979;28;20657;-74
2021/12/22 01:49:17;;;;;;;11.87;8.33;;;-0.20;38.50;;;;;;10316816;28;20619;-74
2021/12/22 01:54:30;;;;;;;9.83;7.90;;;-0.20;38.50;;;;;;10312559;28;20255;-74
2021/12/22 01:59:34;;;;;;;9.33;8.17;;;-0.20;38.40;;;;;;10317767;28;20237;-74
2021/12/22 02:04:41;;;;;;;10.53;8.07;;;-0.30;38.40;;;;;;10311981;28;20246;-74
2021/12/22 02:10:03;;;;;;;9.43;7.63;;;-0.30;38.40;;;;;;10319766;28;20318;-75
2021/12/22 02:15:07;;;;;;;9.77;7.10;;;-0.30;38.40;;;;;;10311413;28;20605;-74
2021/12/22 02:20:13;;;;;;;12.93;7.57;;;-0.40;38.30;;;;;;10311879;28;20234;-75
2021/12/22 02:25:20;;;;;;;9.87;7.87;;;-0.40;38.30;;;;;;10307060;28;20239;-74
2021/12/22 02:30:26;;;;;;;7.37;6.60;;;-0.40;38.30;;;;;;10304952;28;20881;-75
2021/12/22 02:35:41;;;;;;;8.90;7.27;;;-0.40;38.30;;;;;;10307172;28;20274;-74
2021/12/22 02:40:46;;;;;;;7.90;6.87;;;-0.50;38.30;;;;;;10315484;28;20253;-74
2021/12/22 02:45:51;;;;;;;8.57;7.10;;;-0.50;38.30;;;;;;10311180;28;20239;-74
2021/12/22 02:50:57;;;;;;;7.77;6.87;;;-0.50;38.20;;;;;;10318024;28;20241;-74
2021/12/22 02:56:06;;;;;;;9.33;6.70;;;-0.50;38.40;;;;;;10312519;28;20231;-74
2021/12/22 03:01:24;;;;;;;8.43;6.83;;;-0.50;38.40;;;;;;10306732;28;20230;-74
2021/12/22 03:06:35;;;;;;;9.80;6.97;;;-0.60;38.90;;;;;;10308441;28;20287;-74
2021/12/22 03:11:38;;;;;;;13.47;8.20;;;-0.60;38.20;;;;;;10313554;28;20239;-74
2021/12/22 03:16:42;;;;;;;11.30;7.40;;;-0.60;38.20;;;;;;10308428;28;20241;-74
2021/12/22 03:21:49;;;;;;;10.83;7.93;;;-0.60;38.20;;;;;;10301512;28;20536;-74
2021/12/22 03:26:52;;;;;;;9.90;7.37;;;-0.50;38.20;;;;;;10311929;28;20237;-73
2021/12/22 03:31:55;;;;;;;9.27;6.70;;;-0.70;38.10;;;;;;10312005;28;20227;-73
2021/12/22 03:37:00;;;;;;;10.13;7.00;;;-0.70;38.10;;;;;;10309785;28;20241;-74
2021/12/22 03:42:06;;;;;;;9.17;7.03;;;-0.80;38.00;;;;;;10308945;28;20239;-75
2021/12/22 03:47:09;;;;;;;8.00;7.13;;;-0.80;38.10;;;;;;10310076;28;20235;-74
2021/12/22 03:52:14;;;;;;;10.60;7.03;;;-0.80;38.10;;;;;;10307623;28;20230;-75
2021/12/22 03:57:17;;;;;;;8.83;6.53;;;-0.80;38.20;;;;;;10309572;28;20235;-74
2021/12/22 04:02:22;;;;;;;9.60;7.13;;;-0.80;38.10;;;;;;10308479;28;20243;-74
2021/12/22 04:07:27;;;;;;;8.93;6.83;;;-0.90;37.90;;;;;;10307737;28;20234;-74
2021/12/22 04:12:30;;;;;;;10.90;7.33;;;-0.90;37.90;;;;;;10309770;28;20594;-74
2021/12/22 04:17:33;;;;;;;7.40;6.43;;;-0.90;38.00;;;;;;10309938;28;20232;-74
2021/12/22 04:22:38;;;;;;;8.17;6.40;;;-0.90;38.00;;;;;;10302206;28;20243;-74
2021/12/22 04:27:42;;;;;;;7.03;5.60;;;-0.90;37.90;;;;;;10307026;28;20637;-74
2021/12/22 04:32:45;;;;;;;7.67;6.03;;;-1.00;37.80;;;;;;10308487;28;20302;-74
2021/12/22 04:37:50;;;;;;;7.77;6.20;;;-1.00;38.00;;;;;;10305193;28;20223;-74
2021/12/22 04:42:53;;;;;;;9.47;7.00;;;-1.00;37.80;;;;;;10307340;28;20246;-75
2021/12/22 04:47:57;;;;;;;9.97;7.73;;;-1.10;37.70;;;;;;10313417;28;20231;-75
2021/12/22 04:53:07;;;;;;;11.17;7.83;;;-1.10;37.80;;;;;;10303667;28;20306;-74
2021/12/22 04:58:11;;;;;;;9.73;6.80;;;-1.10;37.80;;;;;;10304280;28;20842;-74
2021/12/22 05:03:15;;;;;;;10.00;7.60;;;-1.10;38.00;;;;;;10311778;28;20601;-74
2021/12/22 05:08:19;;;;;;;10.40;7.03;;;-1.10;38.00;;;;;;10304784;28;20235;-74
2021/12/22 05:13:22;;;;;;;9.77;7.43;;;-1.20;38.00;;;;;;10308978;28;20242;-74
2021/12/22 05:18:47;;;;;;;13.30;8.97;;;-1.10;38.20;;;;;;10316021;28;20241;-74
2021/12/22 05:23:50;;;;;;;12.07;8.80;;;-1.20;38.20;;;;;;10303107;28;20231;-74
2021/12/22 05:28:55;;;;;;;12.67;9.20;;;-1.30;38.00;;;;;;10320383;28;20238;-75
2021/12/22 05:33:58;;;;;;;11.27;8.67;;;-1.20;38.20;;;;;;10319142;28;20238;-75
2021/12/22 05:39:03;;;;;;;9.50;7.60;;;-1.30;38.10;;;;;;10322417;28;20236;-75
2021/12/22 05:44:06;;;;;;;9.30;7.10;;;-1.30;37.70;;;;;;10319625;28;20327;-74
2021/12/22 05:49:10;;;;;;;9.40;7.90;;;-1.30;38.00;;;;;;10319415;28;20239;-75
2021/12/22 05:54:15;;;;;;;10.43;7.33;;;-1.30;37.80;;;;;;10321491;28;20867;-74
2021/12/22 05:59:18;;;;;;;12.30;8.07;;;-1.40;38.00;;;;;;10315829;28;20242;-75
2021/12/22 06:04:21;;;;;;;9.23;7.43;;;-1.50;38.00;;;;;;10327349;28;20239;-75
2021/12/22 06:09:26;;;;;;;9.50;7.23;;;-1.50;37.90;;;;;;10313571;28;20237;-75
2021/12/22 06:14:29;;;;;;;10.80;7.70;;;-1.50;39.70;;;;;;10311136;28;20238;-75
2021/12/22 06:19:33;;;;;;;10.13;7.10;;;-1.40;40.10;;;;;;10309638;28;20642;-75
2021/12/22 06:24:37;;;;;;;10.57;7.73;;;-1.30;39.70;;;;;;10314358;28;20242;-75
2021/12/22 06:29:40;;;;;;;9.53;7.30;;;-1.30;39.00;;;;;;10313433;28;20237;-75
2021/12/22 06:34:44;;;;;;;10.63;7.10;;;-1.30;38.70;;;;;;10315686;28;20269;-75
2021/12/22 06:39:49;;;;;;;9.63;6.70;;;-1.30;38.50;;;;;;10319173;28;20234;-75
2021/12/22 06:44:52;;;;;;;9.23;6.13;;;-1.30;38.30;;;;;;10314170;28;20235;-75
2021/12/22 06:49:55;;;;;;;11.17;7.30;;;-1.30;38.40;;;;;;10309142;28;20223;-74
2021/12/22 06:55:00;;;;;;;10.90;8.37;;;-1.40;38.20;;;;;;10312448;28;20281;-74
2021/12/22 07:00:06;;;;;;;15.03;9.27;;;-1.40;38.10;;;;;;10314593;28;20802;-73
2021/12/22 07:05:11;;;;;;;13.63;8.63;;;-1.50;37.90;;;;;;10305475;28;20231;-73
2021/12/22 07:10:16;;;;;;;12.73;8.67;;;-1.50;38.10;;;;;;10311915;28;20763;-73
2021/12/22 07:15:20;;;;;;;12.60;8.40;;;-1.50;38.20;;;;;;10318184;28;20238;-73
2021/12/22 07:20:23;;;;;;;12.53;8.27;;;-1.60;38.00;;;;;;10316494;28;20784;-73
2021/12/22 07:25:28;;;;;;;11.30;8.93;;;-1.60;38.10;;;;;;10314090;28;20241;-73
2021/12/22 07:30:31;;;;;;;10.00;7.73;;;-1.60;38.10;;;;;;10308330;28;20232;-73
2021/12/22 07:35:39;;;;;;;10.43;8.10;;;-1.70;38.20;;;;;;10315624;28;20760;-74
2021/12/22 07:40:44;;;;;;;10.20;7.33;;;-1.60;38.20;;;;;;10308463;28;20242;-73
2021/12/22 07:45:47;;;;;;;9.83;7.67;;;-1.70;38.30;;;;;;10318522;28;20226;-73
2021/12/22 07:50:51;;;;;;;8.70;7.50;;;-1.60;38.60;;;;;;10316937;28;20227;-74
2021/12/22 07:55:56;;;;;;;11.83;7.53;;;-1.60;38.70;;;;;;10312098;28;20230;-73
2021/12/22 08:01:00;;;;;;;9.37;6.73;;;-1.60;39.10;;;;;;10315437;28;20737;-74
2021/12/22 08:06:05;;;;;;;11.43;8.60;;;-1.50;40.60;;;;;;10304119;28;20293;-75
2021/12/22 08:11:10;;;;;;;12.77;8.20;;;-1.30;41.60;;;;;;10290242;28;20286;-75
2021/12/22 08:16:14;;;;;;;17.33;11.47;;;-1.10;40.80;;;;;;10304170;28;20242;-75
2021/12/22 08:21:17;;;;;;;14.60;10.87;;;-0.90;40.30;;;;;;10317355;28;20231;-75
2021/12/22 08:26:21;;;;;;;14.63;11.30;;;-0.80;40.10;;;;;;10316789;28;20246;-76
2021/12/22 08:31:26;;;;;;;15.27;11.20;;;-0.80;39.80;;;;;;10310293;28;20920;-76
2021/12/22 08:41:54;;;;;;;13.40;9.67;;;-0.60;39.90;;;;;;10319032;28;20725;-76
2021/12/22 08:46:57;;;;;;;13.10;9.47;;;-0.40;40.00;;;;;;10314888;28;20234;-76
2021/12/22 08:52:00;;;;;;;13.30;9.33;;;-0.40;40.00;;;;;;10320774;28;20231;-76
2021/12/22 08:57:06;;;;;;;11.50;9.17;;;-0.30;40.20;;;;;;10312122;28;20246;-77
2021/12/22 09:02:09;;;;;;;9.70;8.40;;;-0.20;40.30;;;;;;10305961;28;20255;-77
2021/12/22 09:07:12;;;;;;;11.30;9.53;;;-0.10;40.30;;;;;;10314973;28;20231;-77
2021/12/22 09:12:17;;;;;;;11.83;9.43;;;0.00;40.60;;;;;;10322294;28;20250;-77
2021/12/22 09:17:20;;;;;;;10.80;8.97;;;0.20;40.70;;;;;;10313844;28;20231;-77
2021/12/22 09:22:24;;;;;;;13.63;9.90;;;0.30;40.80;;;;;;10312400;28;20793;-77
2021/12/22 09:27:28;;;;;;;10.07;9.03;;;0.40;40.90;;;;;;10317850;28;20242;-77
2021/12/22 09:32:32;;;;;;;11.97;9.90;;;0.60;41.20;;;;;;10316708;28;20235;-76
2021/12/22 09:37:35;;;;;;;11.13;9.10;;;0.80;41.30;;;;;;10315308;28;20235;-76
2021/12/22 09:42:40;;;;;;;10.67;9.57;;;0.90;41.50;;;;;;10319404;28;20235;-76
2021/12/22 09:48:00;;;;;;;11.60;9.93;;;1.10;41.60;;;;;;10312618;28;20237;-74
2021/12/22 09:53:03;;;;;;;10.33;7.87;;;1.20;41.70;;;;;;10321001;28;20234;-77
2021/12/22 09:58:09;;;;;;;11.97;9.07;;;1.40;43.00;;;;;;10309635;28;20226;-77
2021/12/22 10:03:13;;;;;;;10.33;9.20;;;1.70;46.10;;;;;;10319480;28;20234;-74
2021/12/22 10:08:18;;;;;;;10.40;9.30;;;2.30;45.60;;;;;;10312708;28;20238;-75
2021/12/22 10:13:26;;;;;;;11.97;10.40;;;2.70;43.90;;;;;;10334826;28;20723;-73
2021/12/22 10:18:30;;;;;;;12.67;10.57;;;3.00;42.80;;;;;;10317302;28;20317;-75
2021/12/22 10:23:33;;;;;;;11.40;10.23;;;3.30;42.50;;;;;;10315856;28;20235;-75
2021/12/22 10:28:49;;;;;;;12.40;11.13;;;3.40;42.10;;;;;;10292580;28;20235;-74
2021/12/22 10:33:53;;;;;;;12.63;11.43;;;3.60;41.70;;;;;;10302106;28;20257;-74
2021/12/22 10:39:00;;;;;;;12.13;10.93;;;3.70;41.70;;;;;;10300811;28;20235;-73
2021/12/22 10:44:08;;;;;;;12.33;11.03;;;3.80;41.80;;;;;;10299258;28;20243;-74
2021/12/22 10:49:17;;;;;;;12.50;11.17;;;4.00;41.70;;;;;;10302451;28;20254;-75
2021/12/22 10:54:20;;;;;;;11.60;10.40;;;4.10;41.50;;;;;;10313550;28;20242;-78
2021/12/22 10:59:25;;;;;;;11.60;10.40;;;4.20;40.90;;;;;;10320589;28;20732;-77
2021/12/22 11:04:32;;;;;;;11.50;10.37;;;4.10;40.50;;;;;;10314812;28;20266;-77
2021/12/22 11:09:36;;;;;;;12.10;10.90;;;4.10;40.70;;;;;;10328939;28;20227;-77
2021/12/22 11:14:44;;;;;;;13.33;11.80;;;4.00;40.80;;;;;;10311476;28;20314;-79
2021/12/22 11:19:54;;;;;;;12.87;11.57;;;4.10;40.40;;;;;;10309875;28;20231;-79
2021/12/22 11:24:57;;;;;;;14.10;11.73;;;4.10;40.10;;;;;;10331076;28;20231;-77
2021/12/22 11:30:02;;;;;;;13.83;11.40;;;4.00;40.50;;;;;;10331081;28;20325;-76
2021/12/22 11:35:08;;;;;;;12.13;10.93;;;4.00;40.50;;;;;;10319944;28;20231;-76
2021/12/22 11:40:18;;;;;;;11.50;10.37;;;4.00;40.50;;;;;;10328409;28;20698;-75
2021/12/22 11:45:24;;;;;;;9.97;9.00;;;4.00;40.10;;;;;;10327267;28;20240;-77
2021/12/22 11:50:30;;;;;;;12.13;10.57;;;4.10;40.50;;;;;;10323488;28;20730;-74
2021/12/22 11:55:39;;;;;;;11.00;9.90;;;4.20;40.10;;;;;;10329039;28;20235;-77
2021/12/22 12:00:45;;;;;;;10.20;9.30;;;4.20;40.00;;;;;;10325367;28;20238;-75
2021/12/22 12:06:09;;;;;;;11.73;10.63;;;4.30;40.30;;;;;;10321897;28;20227;-76
2021/12/22 12:11:15;;;;;;;10.47;9.47;;;4.30;40.00;;;;;;10341531;28;20268;-76
2021/12/22 12:21:50;;;;;;;10.23;9.20;;;4.40;39.60;;;;;;10336063;28;20731;-76
2021/12/22 12:26:53;;;;;;;18.37;10.20;;;4.60;39.80;;;;;;10326010;28;20235;-76
2021/12/22 12:31:58;;;;;;;11.60;10.40;;;4.40;39.60;;;;;;10344908;28;20238;-75
2021/12/22 12:37:01;;;;;;;11.03;9.93;;;4.40;39.70;;;;;;10314020;28;20644;-77
2021/12/22 12:42:05;;;;;;;10.77;9.77;;;4.50;40.10;;;;;;10320404;28;20235;-76
2021/12/22 12:47:20;;;;;;;10.77;9.67;;;4.40;40.00;;;;;;10331262;28;20266;-75
2021/12/22 12:52:27;;;;;;;11.20;10.07;;;4.60;38.90;;;;;;10319395;28;20234;-75
2021/12/22 12:57:32;;;;;;;14.27;12.53;;;4.50;39.40;;;;;;10331567;28;20253;-73
2021/12/22 13:02:37;;;;;;;14.20;12.73;;;4.50;39.60;;;;;;10331001;28;20608;-75
2021/12/22 13:07:42;;;;;;;13.30;11.90;;;4.50;39.60;;;;;;10337297;28;20306;-74
2021/12/22 13:13:01;;;;;;;11.37;9.63;;;4.50;39.70;;;;;;10328545;28;20231;-74
2021/12/22 13:18:11;;;;;;;10.27;9.20;;;4.50;39.50;;;;;;10346997;28;20602;-75
2021/12/22 13:23:16;;;;;;;9.87;8.50;;;4.50;39.30;;;;;;10373316;28;20234;-75
2021/12/22 13:28:22;;;;;;;9.53;8.53;;;4.50;39.50;;;;;;10372796;28;20238;-74
2021/12/22 13:33:27;;;;;;;10.67;9.57;;;4.50;39.40;;;;;;10371641;28;20238;-75
2021/12/22 13:38:34;;;;;;;10.33;9.23;;;4.60;39.40;;;;;;10358636;28;20280;-75
2021/12/22 13:43:40;;;;;;;11.03;9.43;;;4.60;39.60;;;;;;10320750;28;20238;-75
2021/12/22 13:48:48;;;;;;;11.67;10.57;;;4.70;39.40;;;;;;10317972;28;20234;-74
2021/12/22 13:53:56;;;;;;;10.70;9.60;;;4.70;39.30;;;;;;10345808;28;20416;-76
2021/12/22 13:59:02;;;;;;;14.00;11.80;;;4.70;39.50;;;;;;10330032;28;20241;-74
2021/12/22 14:04:13;;;;;;;12.80;10.83;;;4.60;39.20;;;;;;10316174;28;20290;-75
2021/12/22 14:09:21;;;;;;;10.63;9.27;;;4.80;39.10;;;;;;10320659;28;20235;-75
2021/12/22 14:14:46;;;;;;;9.13;8.23;;;4.80;38.90;;;;;;10329715;28;20251;-75
2021/12/22 14:20:04;;;;;;;9.90;8.83;;;4.80;39.10;;;;;;10329778;28;20238;-75
2021/12/22 14:25:10;;;;;;;9.37;8.40;;;4.70;38.30;;;;;;10328599;28;20238;-75
2021/12/22 14:30:27;;;;;;;8.77;7.87;;;4.70;39.10;;;;;;10359976;28;20321;-75
2021/12/22 14:35:33;;;;;;;8.50;7.60;;;4.60;38.20;;;;;;10312748;28;20400;-76
2021/12/22 14:40:38;;;;;;;10.80;7.77;;;4.60;38.90;;;;;;10334003;28;20233;-75
2021/12/22 14:45:45;;;;;;;7.90;7.10;;;4.50;39.10;;;;;;10328458;28;20246;-74
2021/12/22 14:50:59;;;;;;;8.33;7.53;;;4.50;38.80;;;;;;10337695;28;20709;-72
2021/12/22 14:56:04;;;;;;;8.60;7.80;;;4.50;38.30;;;;;;10329503;28;20658;-74
2021/12/22 15:01:10;;;;;;;9.27;7.77;;;4.50;39.10;;;;;;10329535;28;20708;-73
2021/12/22 15:06:18;;;;;;;8.13;7.33;;;4.50;41.20;;;;;;10344641;28;20799;-74
2021/12/22 15:11:24;;;;;;;8.90;8.00;;;4.60;41.00;;;;;;10336145;28;20245;-74
2021/12/22 15:16:29;;;;;;;32.50;9.50;;;4.70;40.30;;;;;;10345887;28;20234;-74
2021/12/22 15:21:34;;;;;;;16.33;8.63;;;4.90;40.10;;;;;;10325004;28;20289;-74
2021/12/22 15:26:38;;;;;;;11.40;9.20;;;5.00;39.80;;;;;;10328761;28;20322;-74
2021/12/22 15:31:41;;;;;;;10.37;9.30;;;5.00;39.70;;;;;;10334158;28;20227;-74
2021/12/22 15:36:45;;;;;;;10.63;8.90;;;5.10;39.60;;;;;;10318252;28;20227;-74
2021/12/22 15:41:49;;;;;;;10.63;9.00;;;5.10;39.30;;;;;;10347958;28;20223;-75
2021/12/22 15:46:52;;;;;;;12.30;10.27;;;5.10;39.20;;;;;;10330161;28;20239;-73
2021/12/22 15:51:56;;;;;;;15.57;12.37;;;5.10;39.10;;;;;;10327340;28;20230;-76
2021/12/22 15:56:59;;;;;;;13.93;11.33;;;5.10;38.80;;;;;;10322911;28;20242;-75
2021/12/22 16:02:03;;;;;;;13.27;10.93;;;5.00;38.70;;;;;;10323928;28;20582;-76
2021/12/22 16:07:08;;;;;;;17.00;13.07;;;5.00;38.70;;;;;;10331276;28;20314;-75
2021/12/22 16:12:12;;;;;;;12.10;10.80;;;4.90;38.30;;;;;;10317911;28;20227;-76
2021/12/22 16:17:15;;;;;;;13.40;10.43;;;4.80;38.80;;;;;;10335275;28;20231;-76
2021/12/22 16:22:19;;;;;;;11.20;10.00;;;4.80;38.70;;;;;;10336695;28;20732;-76
2021/12/22 16:27:23;;;;;;;12.67;10.53;;;4.70;38.40;;;;;;10346005;28;20232;-76
2021/12/22 16:32:26;;;;;;;12.23;10.20;;;4.60;38.30;;;;;;10324668;28;20241;-76
2021/12/22 16:37:31;;;;;;;10.50;9.30;;;4.50;38.30;;;;;;10340180;28;20233;-76
2021/12/22 16:42:35;;;;;;;11.87;9.03;;;4.40;38.20;;;;;;10336601;28;20248;-75
2021/12/22 16:47:38;;;;;;;8.90;7.77;;;4.40;38.30;;;;;;10344380;28;20235;-75
2021/12/22 16:52:42;;;;;;;9.77;8.87;;;4.30;38.30;;;;;;10290382;28;20242;-75
2021/12/22 16:57:47;;;;;;;9.63;8.67;;;4.20;38.20;;;;;;10340597;28;20234;-75
2021/12/22 17:02:51;;;;;;;8.80;7.90;;;4.10;38.20;;;;;;10326676;28;20227;-76
2021/12/22 17:07:58;;;;;;;9.67;8.67;;;4.10;38.20;;;;;;10328623;28;20293;-76
2021/12/22 17:13:09;;;;;;;9.60;8.70;;;4.00;38.00;;;;;;10335778;28;20255;-76
2021/12/22 17:18:13;;;;;;;11.43;7.80;;;3.90;38.00;;;;;;10349984;28;20321;-76
2021/12/22 17:23:18;;;;;;;9.00;8.10;;;3.80;38.00;;;;;;10367927;28;20234;-75
2021/12/22 17:28:21;;;;;;;11.97;9.33;;;3.80;38.00;;;;;;10353374;28;20415;-76
2021/12/22 17:33:25;;;;;;;10.93;8.43;;;3.70;38.00;;;;;;10294950;28;20236;-76
2021/12/22 17:38:30;;;;;;;10.40;9.30;;;3.80;38.00;;;;;;10322300;28;20709;-75
2021/12/22 17:43:33;;;;;;;12.77;9.90;;;3.50;37.90;;;;;;10331740;28;20231;-75
2021/12/22 17:48:36;;;;;;;12.37;10.10;;;3.50;38.10;;;;;;10333338;28;20235;-75
2021/12/22 17:53:41;;;;;;;15.37;11.90;;;3.40;38.10;;;;;;10335874;28;20231;-74
2021/12/22 17:58:45;;;;;;;16.83;12.83;;;3.30;38.00;;;;;;10339743;28;20278;-75
2021/12/22 18:03:48;;;;;;;20.63;15.60;;;3.30;38.10;;;;;;10358698;28;20609;-74
2021/12/22 18:08:53;;;;;;;21.27;15.57;;;3.20;38.10;;;;;;10337130;28;20571;-75
2021/12/22 18:13:56;;;;;;;15.63;12.80;;;3.10;37.60;;;;;;10343410;28;20238;-75
2021/12/22 18:18:59;;;;;;;15.23;12.70;;;3.10;37.90;;;;;;10331493;28;20227;-75
2021/12/22 18:24:06;;;;;;;16.27;12.27;;;3.10;37.90;;;;;;10343941;28;20235;-75
2021/12/22 18:29:11;;;;;;;14.93;13.00;;;2.90;37.80;;;;;;10331578;28;20613;-75
2021/12/22 18:34:18;;;;;;;17.43;13.77;;;2.90;37.90;;;;;;10343495;28;20235;-74
2021/12/22 18:39:26;;;;;;;18.03;15.23;;;2.90;38.00;;;;;;10339459;28;20314;-74
2021/12/22 18:44:30;;;;;;;19.37;16.50;;;2.80;37.90;;;;;;10338175;28;20734;-75
2021/12/22 18:49:33;;;;;;;16.93;14.37;;;2.80;37.70;;;;;;10350226;28;20230;-75
2021/12/22 18:54:39;;;;;;;16.20;14.47;;;2.70;37.80;;;;;;10380342;28;20990;-75
2021/12/22 18:59:42;;;;;;;16.67;14.00;;;2.60;37.60;;;;;;10377821;28;20258;-76
2021/12/22 19:04:45;;;;;;;16.40;13.83;;;2.50;37.70;;;;;;10377913;28;20248;-75
2021/12/22 19:09:50;;;;;;;14.37;12.53;;;2.50;37.70;;;;;;10307122;28;20235;-75
2021/12/22 19:14:54;;;;;;;15.10;12.73;;;2.40;37.70;;;;;;10298809;28;20239;-75
2021/12/22 19:19:57;;;;;;;12.70;11.30;;;2.30;37.90;;;;;;10297284;28;20255;-74
2021/12/22 19:25:02;;;;;;;18.10;13.03;;;2.30;38.00;;;;;;10295125;28;20240;-75
2021/12/22 19:30:07;;;;;;;14.60;13.10;;;2.20;37.80;;;;;;10296328;28;20235;-76
2021/12/22 19:35:11;;;;;;;16.07;11.90;;;2.20;37.80;;;;;;10339333;28;20238;-76
2021/12/22 19:40:16;;;;;;;14.43;12.93;;;2.10;37.60;;;;;;10350078;28;20246;-77
2021/12/22 19:45:20;;;;;;;13.93;12.17;;;2.10;37.60;;;;;;10312924;28;20246;-75
2021/12/22 19:50:24;;;;;;;14.70;11.57;;;2.00;37.70;;;;;;10331375;28;20307;-77
2021/12/22 19:55:29;;;;;;;14.03;11.73;;;2.00;37.80;;;;;;10362507;28;20750;-76
2021/12/22 20:00:36;;;;;;;18.13;14.37;;;1.90;37.80;;;;;;10376052;28;20233;-80
2021/12/22 20:05:43;;;;;;;14.80;12.40;;;2.00;37.90;;;;;;10376512;28;20238;-77
2021/12/22 20:10:48;;;;;;;11.80;10.53;;;1.90;37.70;;;;;;10374704;28;20249;-77
2021/12/22 20:15:54;;;;;;;11.93;9.63;;;1.80;37.60;;;;;;10370233;28;20245;-76
2021/12/22 20:20:57;;;;;;;17.97;10.43;;;1.80;37.90;;;;;;10329558;28;20230;-78
2021/12/22 20:26:02;;;;;;;10.47;9.37;;;1.70;37.90;;;;;;10327334;28;20241;-76
2021/12/22 20:31:06;;;;;;;10.33;8.30;;;1.70;37.70;;;;;;10324509;28;20230;-76
2021/12/22 20:36:10;;;;;;;13.53;9.80;;;1.70;37.90;;;;;;10322824;28;20650;-76
2021/12/22 20:41:15;;;;;;;12.43;9.80;;;1.60;37.70;;;;;;10330563;28;20235;-77
2021/12/22 20:46:19;;;;;;;10.90;9.17;;;1.50;37.60;;;;;;10336030;28;20314;-76
2021/12/22 20:51:22;;;;;;;11.50;8.43;;;1.50;37.70;;;;;;10325598;28;20306;-76
2021/12/22 20:56:28;;;;;;;10.10;8.40;;;1.40;38.30;;;;;;10335649;28;20249;-76
2021/12/22 21:01:33;;;;;;;9.63;8.50;;;1.40;37.60;;;;;;10324995;28;20318;-75
2021/12/22 21:06:36;;;;;;;10.23;8.10;;;1.40;38.40;;;;;;10332890;28;20239;-77
2021/12/22 21:11:42;;;;;;;11.40;9.50;;;1.30;37.70;;;;;;10331364;28;20314;-77
2021/12/22 21:16:45;;;;;;;9.93;8.93;;;1.30;37.60;;;;;;10330528;28;20231;-77
2021/12/22 21:21:48;;;;;;;11.47;9.97;;;1.30;37.70;;;;;;10334887;28;20231;-77
2021/12/22 21:26:53;;;;;;;10.50;8.97;;;1.20;37.70;;;;;;10328817;28;20245;-77
2021/12/22 21:31:56;;;;;;;12.23;10.20;;;1.20;37.70;;;;;;10328195;28;20724;-77
2021/12/22 21:37:00;;;;;;;12.53;10.27;;;1.30;37.80;;;;;;10334138;28;20231;-78
2021/12/22 21:42:06;;;;;;;12.23;9.43;;;1.10;37.60;;;;;;10331493;28;20710;-77
2021/12/22 21:47:10;;;;;;;12.00;10.27;;;1.10;37.50;;;;;;10333298;28;20241;-77
2021/12/22 21:52:29;;;;;;;12.20;10.63;;;1.00;37.60;;;;;;10328307;28;20683;-76
2021/12/22 21:57:34;;;;;;;12.43;10.67;;;1.10;37.50;;;;;;10334238;28;20235;-77
2021/12/22 22:02:37;;;;;;;13.77;10.97;;;0.90;37.60;;;;;;10334798;28;20253;-77
2021/12/22 22:07:41;;;;;;;12.60;10.53;;;0.90;37.60;;;;;;10335780;28;20310;-77
2021/12/22 22:12:47;;;;;;;14.97;11.00;;;0.90;37.70;;;;;;10334826;28;20251;-77
2021/12/22 22:17:50;;;;;;;13.47;11.20;;;0.90;37.70;;;;;;10334366;28;20235;-76
2021/12/22 22:22:54;;;;;;;11.87;9.43;;;0.80;37.60;;;;;;10334715;28;20582;-77
2021/12/22 22:28:00;;;;;;;11.03;9.47;;;0.80;37.70;;;;;;10334168;28;20249;-77
2021/12/22 22:33:04;;;;;;;10.43;9.33;;;0.70;37.70;;;;;;10335851;28;20675;-77
2021/12/22 22:38:07;;;;;;;12.63;10.67;;;0.70;37.70;;;;;;10334687;28;20235;-77
2021/12/22 22:43:11;;;;;;;10.83;9.40;;;0.70;37.50;;;;;;10335385;28;20243;-76
2021/12/22 22:48:15;;;;;;;11.43;9.50;;;0.60;37.70;;;;;;10333413;28;20302;-76
2021/12/22 22:53:18;;;;;;;12.83;10.47;;;0.60;37.70;;;;;;10333437;28;20250;-77
2021/12/22 22:58:23;;;;;;;13.77;10.40;;;0.80;37.90;;;;;;10332735;28;20235;-77
2021/12/22 23:03:31;;;;;;;14.17;11.37;;;0.60;37.70;;;;;;10331745;28;20239;-76
2021/12/22 23:08:34;;;;;;;12.20;10.37;;;0.60;37.70;;;;;;10331244;28;20226;-77
2021/12/22 23:13:43;;;;;;;12.80;10.87;;;0.50;37.60;;;;;;10330820;28;20630;-77
2021/12/22 23:18:47;;;;;;;16.03;10.77;;;0.50;37.60;;;;;;10330321;28;20239;-77
2021/12/22 23:23:50;;;;;;;12.13;9.57;;;0.50;37.60;;;;;;10331099;28;20593;-77
2021/12/22 23:29:02;;;;;;;16.50;12.07;;;0.40;37.50;;;;;;10333248;28;20780;-77
2021/12/22 23:34:06;;;;;;;18.00;12.50;;;0.40;37.60;;;;;;10331588;28;20245;-78
2021/12/22 23:49:51;;;;;;;13.00;11.10;;;0.20;37.50;;;;;;10301289;28;20258;-78
2021/12/22 23:54:54;;;;;;;12.87;10.00;;;0.20;37.60;;;;;;10332985;28;20247;-77
2021/12/22 23:59:59;;;;;;;14.03;11.50;;;0.20;37.60;;;;;;10333138;28;21013;-77
